sensor_id;sensor_type;location;lat;lon;timestamp;P1;durP1;ratioP1;P2;durP2;ratioP2
11854;SDS011;5987;53.140;8.904;2023-01-09T00:01:27;2.47;;;1.67;;
11854;SDS011;5987;53.140;8.904;2023-01-09T00:04:32;2.13;;;1.70;;
11854;SDS011;5987;53.140;8.904;2023-01-09T00:07:36;2.70;;;2.10;;
11854;SDS011;5987;53.140;8.904;2023-01-09T00:10:40;4.37;;;1.90;;
11854;SDS011;5987;53.140;8.904;2023-01-09T00:13:44;2.20;;;2.00;;
11854;SDS011;5987;53.140;8.904;2023-01-09T00:16:50;1.97;;;1.70;;
11854;SDS011;5987;53.140;8.904;2023-01-09T00:19:57;2.47;;;1.83;;
11854;SDS011;5987;53.140;8.904;2023-01-09T00:23:00;1.73;;;1.60;;
11854;SDS011;5987;53.140;8.904;2023-01-09T00:26:05;2.77;;;1.60;;
11854;SDS011;5987;53.140;8.904;2023-01-09T00:29:12;3.00;;;1.83;;
11854;SDS011;5987;53.140;8.904;2023-01-09T00:32:17;2.70;;;1.83;;
11854;SDS011;5987;53.140;8.904;2023-01-09T00:35:22;1.93;;;1.80;;
11854;SDS011;5987;53.140;8.904;2023-01-09T00:38:29;2.57;;;1.97;;
11854;SDS011;5987;53.140;8.904;2023-01-09T00:41:34;4.03;;;1.93;;
11854;SDS011;5987;53.140;8.904;2023-01-09T00:44:42;1.80;;;1.60;;
11854;SDS011;5987;53.140;8.904;2023-01-09T00:48:05;2.40;;;2.20;;
11854;SDS011;5987;53.140;8.904;2023-01-09T00:51:13;1.80;;;1.67;;
11854;SDS011;5987;53.140;8.904;2023-01-09T00:54:21;2.03;;;1.83;;
11854;SDS011;5987;53.140;8.904;2023-01-09T00:57:25;3.40;;;1.60;;
11854;SDS011;5987;53.140;8.904;2023-01-09T01:00:29;2.90;;;1.80;;
11854;SDS011;5987;53.140;8.904;2023-01-09T01:03:35;3.13;;;1.90;;
11854;SDS011;5987;53.140;8.904;2023-01-09T01:06:39;4.40;;;2.13;;
11854;SDS011;5987;53.140;8.904;2023-01-09T01:10:00;3.87;;;2.13;;
11854;SDS011;5987;53.140;8.904;2023-01-09T01:13:05;3.20;;;1.87;;
11854;SDS011;5987;53.140;8.904;2023-01-09T01:16:10;3.20;;;2.30;;
11854;SDS011;5987;53.140;8.904;2023-01-09T01:19:16;3.00;;;2.30;;
11854;SDS011;5987;53.140;8.904;2023-01-09T01:22:20;2.40;;;2.10;;
11854;SDS011;5987;53.140;8.904;2023-01-09T01:25:24;2.43;;;2.23;;
11854;SDS011;5987;53.140;8.904;2023-01-09T01:28:28;2.93;;;2.13;;
11854;SDS011;5987;53.140;8.904;2023-01-09T01:31:32;4.67;;;2.27;;
11854;SDS011;5987;53.140;8.904;2023-01-09T01:34:37;2.60;;;2.17;;
11854;SDS011;5987;53.140;8.904;2023-01-09T01:37:41;5.57;;;2.30;;
11854;SDS011;5987;53.140;8.904;2023-01-09T01:40:51;2.83;;;2.10;;
11854;SDS011;5987;53.140;8.904;2023-01-09T01:43:56;2.73;;;1.97;;
11854;SDS011;5987;53.140;8.904;2023-01-09T01:47:02;3.10;;;2.80;;
11854;SDS011;5987;53.140;8.904;2023-01-09T01:50:09;2.97;;;2.17;;
11854;SDS011;5987;53.140;8.904;2023-01-09T01:53:22;2.50;;;2.30;;
11854;SDS011;5987;53.140;8.904;2023-01-09T01:56:31;2.83;;;2.57;;
11854;SDS011;5987;53.140;8.904;2023-01-09T01:59:43;5.17;;;2.73;;
11854;SDS011;5987;53.140;8.904;2023-01-09T02:02:52;3.30;;;3.00;;
11854;SDS011;5987;53.140;8.904;2023-01-09T02:05:57;5.13;;;2.87;;
11854;SDS011;5987;53.140;8.904;2023-01-09T02:09:02;5.73;;;2.90;;
11854;SDS011;5987;53.140;8.904;2023-01-09T02:12:15;4.60;;;3.40;;
11854;SDS011;5987;53.140;8.904;2023-01-09T02:15:24;3.83;;;3.43;;
11854;SDS011;5987;53.140;8.904;2023-01-09T02:18:43;4.33;;;3.60;;
11854;SDS011;5987;53.140;8.904;2023-01-09T02:21:58;5.67;;;3.70;;
11854;SDS011;5987;53.140;8.904;2023-01-09T02:25:21;5.57;;;3.63;;
11854;SDS011;5987;53.140;8.904;2023-01-09T02:32:58;6.43;;;3.47;;
11854;SDS011;5987;53.140;8.904;2023-01-09T02:36:23;4.80;;;4.10;;
11854;SDS011;5987;53.140;8.904;2023-01-09T02:39:37;4.23;;;3.63;;
11854;SDS011;5987;53.140;8.904;2023-01-09T02:42:52;7.50;;;3.80;;
11854;SDS011;5987;53.140;8.904;2023-01-09T02:46:00;5.90;;;3.90;;
11854;SDS011;5987;53.140;8.904;2023-01-09T02:49:05;6.23;;;4.30;;
11854;SDS011;5987;53.140;8.904;2023-01-09T02:52:12;7.17;;;4.23;;
11854;SDS011;5987;53.140;8.904;2023-01-09T02:55:42;4.47;;;3.87;;
11854;SDS011;5987;53.140;8.904;2023-01-09T02:59:08;6.30;;;4.33;;
11854;SDS011;5987;53.140;8.904;2023-01-09T03:02:35;6.53;;;4.77;;
11854;SDS011;5987;53.140;8.904;2023-01-09T03:05:52;6.07;;;5.00;;
11854;SDS011;5987;53.140;8.904;2023-01-09T03:09:07;6.90;;;5.00;;
11854;SDS011;5987;53.140;8.904;2023-01-09T03:12:21;8.17;;;5.37;;
11854;SDS011;5987;53.140;8.904;2023-01-09T03:15:31;9.67;;;6.13;;
11854;SDS011;5987;53.140;8.904;2023-01-09T03:18:39;5.93;;;5.30;;
11854;SDS011;5987;53.140;8.904;2023-01-09T03:21:47;6.13;;;5.53;;
11854;SDS011;5987;53.140;8.904;2023-01-09T03:24:52;6.03;;;4.37;;
11854;SDS011;5987;53.140;8.904;2023-01-09T03:27:57;5.80;;;4.70;;
11854;SDS011;5987;53.140;8.904;2023-01-09T03:31:03;7.50;;;4.43;;
11854;SDS011;5987;53.140;8.904;2023-01-09T03:34:07;5.93;;;4.93;;
11854;SDS011;5987;53.140;8.904;2023-01-09T03:37:12;4.47;;;3.57;;
11854;SDS011;5987;53.140;8.904;2023-01-09T03:40:16;4.67;;;4.17;;
11854;SDS011;5987;53.140;8.904;2023-01-09T03:43:21;5.67;;;3.60;;
11854;SDS011;5987;53.140;8.904;2023-01-09T03:46:25;4.07;;;3.67;;
11854;SDS011;5987;53.140;8.904;2023-01-09T03:49:28;6.97;;;4.07;;
11854;SDS011;5987;53.140;8.904;2023-01-09T03:52:34;5.13;;;4.17;;
11854;SDS011;5987;53.140;8.904;2023-01-09T03:55:37;7.03;;;4.37;;
11854;SDS011;5987;53.140;8.904;2023-01-09T03:58:41;5.33;;;4.00;;
11854;SDS011;5987;53.140;8.904;2023-01-09T04:01:45;4.30;;;3.90;;
11854;SDS011;5987;53.140;8.904;2023-01-09T04:04:49;5.87;;;4.00;;
11854;SDS011;5987;53.140;8.904;2023-01-09T04:07:55;5.07;;;3.57;;
11854;SDS011;5987;53.140;8.904;2023-01-09T04:10:58;4.87;;;4.07;;
11854;SDS011;5987;53.140;8.904;2023-01-09T04:14:02;4.30;;;3.73;;
11854;SDS011;5987;53.140;8.904;2023-01-09T04:17:06;7.77;;;3.77;;
11854;SDS011;5987;53.140;8.904;2023-01-09T04:20:10;4.17;;;3.50;;
11854;SDS011;5987;53.140;8.904;2023-01-09T04:23:16;4.30;;;3.90;;
11854;SDS011;5987;53.140;8.904;2023-01-09T04:26:20;3.67;;;3.37;;
11854;SDS011;5987;53.140;8.904;2023-01-09T04:29:24;4.50;;;4.10;;
11854;SDS011;5987;53.140;8.904;2023-01-09T04:32:28;6.17;;;3.97;;
11854;SDS011;5987;53.140;8.904;2023-01-09T04:35:32;4.30;;;3.60;;
11854;SDS011;5987;53.140;8.904;2023-01-09T04:38:37;4.37;;;3.90;;
11854;SDS011;5987;53.140;8.904;2023-01-09T04:41:41;4.40;;;3.47;;
11854;SDS011;5987;53.140;8.904;2023-01-09T04:44:51;5.73;;;3.90;;
11854;SDS011;5987;53.140;8.904;2023-01-09T04:47:55;5.50;;;3.70;;
11854;SDS011;5987;53.140;8.904;2023-01-09T04:50:58;4.67;;;3.63;;
11854;SDS011;5987;53.140;8.904;2023-01-09T04:54:04;3.73;;;2.90;;
11854;SDS011;5987;53.140;8.904;2023-01-09T04:57:08;5.47;;;3.80;;
11854;SDS011;5987;53.140;8.904;2023-01-09T05:00:12;5.43;;;3.97;;
11854;SDS011;5987;53.140;8.904;2023-01-09T05:03:17;3.83;;;3.13;;
11854;SDS011;5987;53.140;8.904;2023-01-09T05:06:21;5.10;;;3.43;;
11854;SDS011;5987;53.140;8.904;2023-01-09T05:09:26;6.10;;;4.00;;
11854;SDS011;5987;53.140;8.904;2023-01-09T05:12:31;4.90;;;3.53;;
11854;SDS011;5987;53.140;8.904;2023-01-09T05:15:36;3.90;;;3.50;;
11854;SDS011;5987;53.140;8.904;2023-01-09T05:18:40;7.37;;;4.33;;
11854;SDS011;5987;53.140;8.904;2023-01-09T05:21:44;4.40;;;3.70;;
11854;SDS011;5987;53.140;8.904;2023-01-09T05:24:49;6.20;;;3.77;;
11854;SDS011;5987;53.140;8.904;2023-01-09T05:27:53;5.73;;;4.40;;
11854;SDS011;5987;53.140;8.904;2023-01-09T05:30:57;7.20;;;4.90;;
11854;SDS011;5987;53.140;8.904;2023-01-09T05:34:01;6.13;;;4.60;;
11854;SDS011;5987;53.140;8.904;2023-01-09T05:37:05;6.40;;;4.73;;
11854;SDS011;5987;53.140;8.904;2023-01-09T05:40:11;5.93;;;4.90;;
11854;SDS011;5987;53.140;8.904;2023-01-09T05:43:15;5.73;;;4.07;;
11854;SDS011;5987;53.140;8.904;2023-01-09T05:46:19;5.03;;;4.17;;
11854;SDS011;5987;53.140;8.904;2023-01-09T05:49:23;5.07;;;4.37;;
11854;SDS011;5987;53.140;8.904;2023-01-09T05:52:27;6.03;;;4.53;;
11854;SDS011;5987;53.140;8.904;2023-01-09T05:55:33;6.40;;;4.03;;
11854;SDS011;5987;53.140;8.904;2023-01-09T05:58:37;5.77;;;4.07;;
11854;SDS011;5987;53.140;8.904;2023-01-09T06:01:41;4.40;;;4.00;;
11854;SDS011;5987;53.140;8.904;2023-01-09T06:04:45;6.03;;;4.07;;
11854;SDS011;5987;53.140;8.904;2023-01-09T06:07:50;5.03;;;3.50;;
11854;SDS011;5987;53.140;8.904;2023-01-09T06:10:56;5.23;;;3.93;;
11854;SDS011;5987;53.140;8.904;2023-01-09T06:14:00;5.37;;;3.57;;
11854;SDS011;5987;53.140;8.904;2023-01-09T06:17:04;6.17;;;3.87;;
11854;SDS011;5987;53.140;8.904;2023-01-09T06:20:09;7.20;;;3.87;;
11854;SDS011;5987;53.140;8.904;2023-01-09T06:23:13;3.40;;;3.07;;
11854;SDS011;5987;53.140;8.904;2023-01-09T06:26:19;4.77;;;3.37;;
11854;SDS011;5987;53.140;8.904;2023-01-09T06:29:22;6.37;;;3.33;;
11854;SDS011;5987;53.140;8.904;2023-01-09T06:32:26;8.80;;;4.40;;
11854;SDS011;5987;53.140;8.904;2023-01-09T06:35:30;6.60;;;3.90;;
11854;SDS011;5987;53.140;8.904;2023-01-09T06:38:34;5.17;;;4.00;;
11854;SDS011;5987;53.140;8.904;2023-01-09T06:41:39;4.40;;;3.33;;
11854;SDS011;5987;53.140;8.904;2023-01-09T06:44:44;6.00;;;3.97;;
11854;SDS011;5987;53.140;8.904;2023-01-09T06:47:48;6.17;;;3.80;;
11854;SDS011;5987;53.140;8.904;2023-01-09T06:50:51;6.27;;;3.73;;
11854;SDS011;5987;53.140;8.904;2023-01-09T06:53:57;4.53;;;4.07;;
11854;SDS011;5987;53.140;8.904;2023-01-09T06:57:02;5.57;;;3.93;;
11854;SDS011;5987;53.140;8.904;2023-01-09T07:00:06;5.80;;;4.67;;
11854;SDS011;5987;53.140;8.904;2023-01-09T07:03:12;6.87;;;4.60;;
11854;SDS011;5987;53.140;8.904;2023-01-09T07:06:20;8.83;;;5.40;;
11854;SDS011;5987;53.140;8.904;2023-01-09T07:09:24;12.57;;;6.60;;
11854;SDS011;5987;53.140;8.904;2023-01-09T07:12:29;12.30;;;6.10;;
11854;SDS011;5987;53.140;8.904;2023-01-09T07:15:33;8.43;;;6.10;;
11854;SDS011;5987;53.140;8.904;2023-01-09T07:18:39;10.50;;;6.17;;
11854;SDS011;5987;53.140;8.904;2023-01-09T07:21:42;8.67;;;6.57;;
11854;SDS011;5987;53.140;8.904;2023-01-09T07:24:47;11.97;;;6.30;;
11854;SDS011;5987;53.140;8.904;2023-01-09T07:27:52;10.30;;;6.33;;
11854;SDS011;5987;53.140;8.904;2023-01-09T07:30:57;10.80;;;6.63;;
11854;SDS011;5987;53.140;8.904;2023-01-09T07:34:03;10.60;;;7.47;;
11854;SDS011;5987;53.140;8.904;2023-01-09T07:37:07;11.83;;;7.37;;
11854;SDS011;5987;53.140;8.904;2023-01-09T07:40:11;11.67;;;6.70;;
11854;SDS011;5987;53.140;8.904;2023-01-09T07:43:16;10.07;;;6.73;;
11854;SDS011;5987;53.140;8.904;2023-01-09T07:46:20;10.13;;;6.93;;
11854;SDS011;5987;53.140;8.904;2023-01-09T07:49:24;10.97;;;7.80;;
11854;SDS011;5987;53.140;8.904;2023-01-09T07:52:28;13.33;;;8.33;;
11854;SDS011;5987;53.140;8.904;2023-01-09T07:55:32;12.67;;;7.60;;
11854;SDS011;5987;53.140;8.904;2023-01-09T07:58:37;11.77;;;7.67;;
11854;SDS011;5987;53.140;8.904;2023-01-09T08:01:42;18.70;;;8.43;;
11854;SDS011;5987;53.140;8.904;2023-01-09T08:04:46;11.03;;;7.80;;
11854;SDS011;5987;53.140;8.904;2023-01-09T08:07:50;13.90;;;8.73;;
11854;SDS011;5987;53.140;8.904;2023-01-09T08:10:54;19.20;;;9.53;;
11854;SDS011;5987;53.140;8.904;2023-01-09T08:13:59;15.40;;;9.40;;
11854;SDS011;5987;53.140;8.904;2023-01-09T08:17:04;19.00;;;9.20;;
11854;SDS011;5987;53.140;8.904;2023-01-09T08:20:10;16.93;;;10.47;;
11854;SDS011;5987;53.140;8.904;2023-01-09T08:23:15;19.07;;;8.63;;
11854;SDS011;5987;53.140;8.904;2023-01-09T08:26:20;17.93;;;8.77;;
11854;SDS011;5987;53.140;8.904;2023-01-09T08:29:25;18.83;;;9.13;;
11854;SDS011;5987;53.140;8.904;2023-01-09T08:32:29;13.17;;;8.57;;
11854;SDS011;5987;53.140;8.904;2023-01-09T08:35:34;20.70;;;9.20;;
11854;SDS011;5987;53.140;8.904;2023-01-09T08:38:39;14.97;;;8.53;;
11854;SDS011;5987;53.140;8.904;2023-01-09T08:41:44;12.07;;;8.57;;
11854;SDS011;5987;53.140;8.904;2023-01-09T08:45:08;15.30;;;8.73;;
11854;SDS011;5987;53.140;8.904;2023-01-09T08:48:31;12.90;;;7.17;;
11854;SDS011;5987;53.140;8.904;2023-01-09T08:51:35;12.77;;;6.93;;
11854;SDS011;5987;53.140;8.904;2023-01-09T08:54:39;14.37;;;7.30;;
11854;SDS011;5987;53.140;8.904;2023-01-09T08:57:46;12.13;;;7.33;;
11854;SDS011;5987;53.140;8.904;2023-01-09T09:00:52;10.90;;;6.63;;
11854;SDS011;5987;53.140;8.904;2023-01-09T09:03:55;11.57;;;6.00;;
11854;SDS011;5987;53.140;8.904;2023-01-09T09:06:59;9.63;;;6.97;;
11854;SDS011;5987;53.140;8.904;2023-01-09T09:10:03;19.43;;;7.00;;
11854;SDS011;5987;53.140;8.904;2023-01-09T09:13:07;10.33;;;5.87;;
11854;SDS011;5987;53.140;8.904;2023-01-09T09:16:12;13.43;;;6.23;;
11854;SDS011;5987;53.140;8.904;2023-01-09T09:19:16;12.33;;;6.30;;
11854;SDS011;5987;53.140;8.904;2023-01-09T09:22:20;10.00;;;6.60;;
11854;SDS011;5987;53.140;8.904;2023-01-09T09:25:24;12.13;;;6.53;;
11854;SDS011;5987;53.140;8.904;2023-01-09T09:28:30;10.07;;;5.30;;
11854;SDS011;5987;53.140;8.904;2023-01-09T09:31:36;9.73;;;5.57;;
11854;SDS011;5987;53.140;8.904;2023-01-09T09:34:40;8.07;;;5.13;;
11854;SDS011;5987;53.140;8.904;2023-01-09T09:37:51;11.20;;;5.07;;
11854;SDS011;5987;53.140;8.904;2023-01-09T09:41:06;6.00;;;4.83;;
11854;SDS011;5987;53.140;8.904;2023-01-09T09:44:42;11.73;;;5.10;;
11854;SDS011;5987;53.140;8.904;2023-01-09T09:48:05;8.90;;;4.00;;
11854;SDS011;5987;53.140;8.904;2023-01-09T09:51:34;6.40;;;4.63;;
11854;SDS011;5987;53.140;8.904;2023-01-09T09:55:10;9.47;;;4.57;;
11854;SDS011;5987;53.140;8.904;2023-01-09T09:58:20;8.97;;;5.17;;
11854;SDS011;5987;53.140;8.904;2023-01-09T10:01:33;6.70;;;4.70;;
11854;SDS011;5987;53.140;8.904;2023-01-09T10:04:47;9.43;;;4.93;;
11854;SDS011;5987;53.140;8.904;2023-01-09T10:07:58;11.53;;;5.83;;
11854;SDS011;5987;53.140;8.904;2023-01-09T10:11:17;8.47;;;5.50;;
11854;SDS011;5987;53.140;8.904;2023-01-09T10:14:29;13.57;;;5.93;;
11854;SDS011;5987;53.140;8.904;2023-01-09T10:17:38;10.67;;;6.83;;
11854;SDS011;5987;53.140;8.904;2023-01-09T10:21:05;12.80;;;6.93;;
11854;SDS011;5987;53.140;8.904;2023-01-09T10:24:23;11.83;;;7.27;;
11854;SDS011;5987;53.140;8.904;2023-01-09T10:28:01;10.67;;;6.23;;
11854;SDS011;5987;53.140;8.904;2023-01-09T10:31:25;16.07;;;7.67;;
11854;SDS011;5987;53.140;8.904;2023-01-09T10:34:43;12.20;;;6.63;;
11854;SDS011;5987;53.140;8.904;2023-01-09T10:38:04;10.17;;;5.63;;
11854;SDS011;5987;53.140;8.904;2023-01-09T10:41:13;10.80;;;7.17;;
11854;SDS011;5987;53.140;8.904;2023-01-09T10:44:26;9.57;;;6.70;;
11854;SDS011;5987;53.140;8.904;2023-01-09T10:47:37;14.20;;;7.63;;
11854;SDS011;5987;53.140;8.904;2023-01-09T10:50:44;10.03;;;6.90;;
11854;SDS011;5987;53.140;8.904;2023-01-09T10:53:53;10.13;;;6.40;;
11854;SDS011;5987;53.140;8.904;2023-01-09T10:56:59;11.07;;;6.70;;
11854;SDS011;5987;53.140;8.904;2023-01-09T11:00:16;9.00;;;6.63;;
11854;SDS011;5987;53.140;8.904;2023-01-09T11:03:25;8.33;;;7.13;;
11854;SDS011;5987;53.140;8.904;2023-01-09T11:06:35;10.67;;;6.97;;
11854;SDS011;5987;53.140;8.904;2023-01-09T11:13:17;10.57;;;6.40;;
11854;SDS011;5987;53.140;8.904;2023-01-09T11:16:24;10.67;;;6.77;;
11854;SDS011;5987;53.140;8.904;2023-01-09T11:19:28;12.43;;;7.37;;
11854;SDS011;5987;53.140;8.904;2023-01-09T11:22:41;10.60;;;6.50;;
11854;SDS011;5987;53.140;8.904;2023-01-09T11:25:51;13.20;;;6.83;;
11854;SDS011;5987;53.140;8.904;2023-01-09T11:29:04;9.57;;;5.90;;
11854;SDS011;5987;53.140;8.904;2023-01-09T11:32:19;8.97;;;5.73;;
11854;SDS011;5987;53.140;8.904;2023-01-09T11:35:26;8.43;;;5.47;;
11854;SDS011;5987;53.140;8.904;2023-01-09T11:38:47;10.23;;;6.37;;
11854;SDS011;5987;53.140;8.904;2023-01-09T11:41:56;10.00;;;6.13;;
11854;SDS011;5987;53.140;8.904;2023-01-09T11:45:24;9.43;;;5.73;;
11854;SDS011;5987;53.140;8.904;2023-01-09T11:48:35;9.77;;;6.37;;
11854;SDS011;5987;53.140;8.904;2023-01-09T11:51:42;8.37;;;6.37;;
11854;SDS011;5987;53.140;8.904;2023-01-09T11:54:48;11.13;;;5.97;;
11854;SDS011;5987;53.140;8.904;2023-01-09T11:58:02;15.00;;;6.63;;
11854;SDS011;5987;53.140;8.904;2023-01-09T12:01:11;11.70;;;6.33;;
11854;SDS011;5987;53.140;8.904;2023-01-09T12:04:40;11.43;;;6.33;;
11854;SDS011;5987;53.140;8.904;2023-01-09T12:08:05;12.27;;;6.20;;
11854;SDS011;5987;53.140;8.904;2023-01-09T12:11:35;10.33;;;5.93;;
11854;SDS011;5987;53.140;8.904;2023-01-09T12:14:53;7.57;;;5.20;;
11854;SDS011;5987;53.140;8.904;2023-01-09T12:18:31;6.87;;;4.57;;
11854;SDS011;5987;53.140;8.904;2023-01-09T12:21:55;11.80;;;5.80;;
11854;SDS011;5987;53.140;8.904;2023-01-09T12:25:12;11.40;;;5.10;;
11854;SDS011;5987;53.140;8.904;2023-01-09T12:32:44;8.43;;;4.93;;
11854;SDS011;5987;53.140;8.904;2023-01-09T12:36:08;7.57;;;5.00;;
11854;SDS011;5987;53.140;8.904;2023-01-09T12:39:22;7.97;;;4.90;;
11854;SDS011;5987;53.140;8.904;2023-01-09T12:42:44;8.00;;;4.63;;
11854;SDS011;5987;53.140;8.904;2023-01-09T12:46:02;9.07;;;4.80;;
11854;SDS011;5987;53.140;8.904;2023-01-09T12:49:23;6.47;;;3.90;;
11854;SDS011;5987;53.140;8.904;2023-01-09T12:52:35;4.17;;;3.77;;
11854;SDS011;5987;53.140;8.904;2023-01-09T12:55:50;6.07;;;4.17;;
11854;SDS011;5987;53.140;8.904;2023-01-09T12:59:05;9.00;;;4.40;;
11854;SDS011;5987;53.140;8.904;2023-01-09T13:02:31;6.70;;;3.40;;
11854;SDS011;5987;53.140;8.904;2023-01-09T13:05:45;3.70;;;3.37;;
11854;SDS011;5987;53.140;8.904;2023-01-09T13:08:57;5.27;;;4.03;;
11854;SDS011;5987;53.140;8.904;2023-01-09T13:12:15;7.00;;;3.23;;
11854;SDS011;5987;53.140;8.904;2023-01-09T13:15:24;4.90;;;3.20;;
11854;SDS011;5987;53.140;8.904;2023-01-09T13:18:37;7.47;;;3.70;;
11854;SDS011;5987;53.140;8.904;2023-01-09T13:21:49;5.30;;;2.73;;
11854;SDS011;5987;53.140;8.904;2023-01-09T13:25:13;4.90;;;3.07;;
11854;SDS011;5987;53.140;8.904;2023-01-09T13:28:34;2.67;;;2.20;;
11854;SDS011;5987;53.140;8.904;2023-01-09T13:31:55;4.67;;;2.33;;
11854;SDS011;5987;53.140;8.904;2023-01-09T13:35:35;3.97;;;2.27;;
11854;SDS011;5987;53.140;8.904;2023-01-09T13:38:52;3.73;;;2.30;;
11854;SDS011;5987;53.140;8.904;2023-01-09T13:41:59;2.40;;;2.20;;
11854;SDS011;5987;53.140;8.904;2023-01-09T13:45:23;3.60;;;1.73;;
11854;SDS011;5987;53.140;8.904;2023-01-09T13:48:37;5.80;;;2.20;;
11854;SDS011;5987;53.140;8.904;2023-01-09T13:51:55;2.63;;;1.80;;
11854;SDS011;5987;53.140;8.904;2023-01-09T14:02:06;6.30;;;2.60;;
11854;SDS011;5987;53.140;8.904;2023-01-09T14:06:11;4.80;;;2.83;;
11854;SDS011;5987;53.140;8.904;2023-01-09T14:09:19;5.33;;;2.87;;
11854;SDS011;5987;53.140;8.904;2023-01-09T14:12:26;3.50;;;3.00;;
11854;SDS011;5987;53.140;8.904;2023-01-09T14:15:45;3.80;;;2.90;;
11854;SDS011;5987;53.140;8.904;2023-01-09T14:18:50;4.77;;;3.27;;
11854;SDS011;5987;53.140;8.904;2023-01-09T14:22:01;4.00;;;3.60;;
11854;SDS011;5987;53.140;8.904;2023-01-09T14:25:07;5.97;;;3.43;;
11854;SDS011;5987;53.140;8.904;2023-01-09T14:28:21;4.50;;;3.67;;
11854;SDS011;5987;53.140;8.904;2023-01-09T14:31:27;8.23;;;4.00;;
11854;SDS011;5987;53.140;8.904;2023-01-09T14:34:34;4.67;;;3.67;;
11854;SDS011;5987;53.140;8.904;2023-01-09T14:37:41;5.77;;;3.13;;
11854;SDS011;5987;53.140;8.904;2023-01-09T14:40:53;5.40;;;4.80;;
11854;SDS011;5987;53.140;8.904;2023-01-09T14:44:05;4.43;;;4.03;;
11854;SDS011;5987;53.140;8.904;2023-01-09T14:47:36;5.73;;;3.97;;
11854;SDS011;5987;53.140;8.904;2023-01-09T14:50:49;5.47;;;4.23;;
11854;SDS011;5987;53.140;8.904;2023-01-09T14:53:56;6.63;;;4.70;;
11854;SDS011;5987;53.140;8.904;2023-01-09T14:57:02;7.63;;;5.00;;
11854;SDS011;5987;53.140;8.904;2023-01-09T15:00:28;7.63;;;4.80;;
11854;SDS011;5987;53.140;8.904;2023-01-09T15:03:33;11.40;;;6.00;;
11854;SDS011;5987;53.140;8.904;2023-01-09T15:06:44;7.80;;;5.53;;
11854;SDS011;5987;53.140;8.904;2023-01-09T15:09:48;7.70;;;6.17;;
11854;SDS011;5987;53.140;8.904;2023-01-09T15:12:52;12.73;;;6.70;;
11854;SDS011;5987;53.140;8.904;2023-01-09T15:16:03;6.83;;;5.73;;
11854;SDS011;5987;53.140;8.904;2023-01-09T15:19:17;8.47;;;6.07;;
11854;SDS011;5987;53.140;8.904;2023-01-09T15:22:22;15.23;;;9.70;;
11854;SDS011;5987;53.140;8.904;2023-01-09T15:25:31;9.13;;;6.17;;
11854;SDS011;5987;53.140;8.904;2023-01-09T15:28:50;8.60;;;6.30;;
11854;SDS011;5987;53.140;8.904;2023-01-09T15:31:56;9.60;;;6.70;;
11854;SDS011;5987;53.140;8.904;2023-01-09T15:35:11;17.97;;;11.90;;
11854;SDS011;5987;53.140;8.904;2023-01-09T15:38:16;23.43;;;14.87;;
11854;SDS011;5987;53.140;8.904;2023-01-09T15:41:27;14.90;;;10.47;;
11854;SDS011;5987;53.140;8.904;2023-01-09T15:44:51;16.80;;;11.77;;
11854;SDS011;5987;53.140;8.904;2023-01-09T15:48:12;37.83;;;18.00;;
11854;SDS011;5987;53.140;8.904;2023-01-09T15:51:23;18.93;;;12.43;;
11854;SDS011;5987;53.140;8.904;2023-01-09T15:54:29;19.73;;;11.50;;
11854;SDS011;5987;53.140;8.904;2023-01-09T15:57:36;17.87;;;10.40;;
11854;SDS011;5987;53.140;8.904;2023-01-09T16:00:42;13.57;;;9.27;;
11854;SDS011;5987;53.140;8.904;2023-01-09T16:03:56;15.73;;;9.20;;
11854;SDS011;5987;53.140;8.904;2023-01-09T16:07:09;18.13;;;10.60;;
11854;SDS011;5987;53.140;8.904;2023-01-09T16:10:20;13.90;;;9.73;;
11854;SDS011;5987;53.140;8.904;2023-01-09T16:13:26;13.53;;;9.60;;
11854;SDS011;5987;53.140;8.904;2023-01-09T16:16:36;14.10;;;10.10;;
11854;SDS011;5987;53.140;8.904;2023-01-09T16:19:44;15.70;;;10.53;;
11854;SDS011;5987;53.140;8.904;2023-01-09T16:22:51;16.07;;;10.17;;
11854;SDS011;5987;53.140;8.904;2023-01-09T16:26:04;16.47;;;10.77;;
11854;SDS011;5987;53.140;8.904;2023-01-09T16:29:26;15.90;;;10.10;;
11854;SDS011;5987;53.140;8.904;2023-01-09T16:32:46;15.23;;;10.13;;
11854;SDS011;5987;53.140;8.904;2023-01-09T16:35:53;17.40;;;10.47;;
11854;SDS011;5987;53.140;8.904;2023-01-09T16:38:59;13.70;;;9.63;;
11854;SDS011;5987;53.140;8.904;2023-01-09T16:42:05;14.37;;;10.10;;
11854;SDS011;5987;53.140;8.904;2023-01-09T16:45:29;14.20;;;9.90;;
11854;SDS011;5987;53.140;8.904;2023-01-09T16:48:38;12.90;;;9.53;;
11854;SDS011;5987;53.140;8.904;2023-01-09T16:51:42;16.67;;;9.93;;
11854;SDS011;5987;53.140;8.904;2023-01-09T16:54:46;13.90;;;9.57;;
11854;SDS011;5987;53.140;8.904;2023-01-09T16:57:50;13.60;;;10.13;;
11854;SDS011;5987;53.140;8.904;2023-01-09T17:00:54;14.83;;;9.73;;
11854;SDS011;5987;53.140;8.904;2023-01-09T17:04:00;16.27;;;10.67;;
11854;SDS011;5987;53.140;8.904;2023-01-09T17:07:03;13.73;;;9.90;;
11854;SDS011;5987;53.140;8.904;2023-01-09T17:10:09;22.27;;;11.80;;
11854;SDS011;5987;53.140;8.904;2023-01-09T17:13:23;20.00;;;12.37;;
11854;SDS011;5987;53.140;8.904;2023-01-09T17:16:28;16.80;;;10.90;;
11854;SDS011;5987;53.140;8.904;2023-01-09T17:19:34;14.83;;;11.20;;
11854;SDS011;5987;53.140;8.904;2023-01-09T17:22:38;15.80;;;10.63;;
11854;SDS011;5987;53.140;8.904;2023-01-09T17:25:41;16.87;;;11.37;;
11854;SDS011;5987;53.140;8.904;2023-01-09T17:29:04;19.60;;;12.67;;
11854;SDS011;5987;53.140;8.904;2023-01-09T17:32:10;21.80;;;12.20;;
11854;SDS011;5987;53.140;8.904;2023-01-09T17:35:18;21.80;;;12.50;;
11854;SDS011;5987;53.140;8.904;2023-01-09T17:38:22;23.03;;;13.63;;
11854;SDS011;5987;53.140;8.904;2023-01-09T17:41:26;23.37;;;15.83;;
11854;SDS011;5987;53.140;8.904;2023-01-09T17:44:32;19.33;;;12.47;;
11854;SDS011;5987;53.140;8.904;2023-01-09T17:47:36;20.00;;;13.27;;
11854;SDS011;5987;53.140;8.904;2023-01-09T17:50:42;24.60;;;13.20;;
11854;SDS011;5987;53.140;8.904;2023-01-09T17:53:47;20.77;;;13.83;;
11854;SDS011;5987;53.140;8.904;2023-01-09T17:56:51;21.93;;;13.80;;
11854;SDS011;5987;53.140;8.904;2023-01-09T17:59:55;25.07;;;14.13;;
11854;SDS011;5987;53.140;8.904;2023-01-09T18:02:59;23.33;;;13.00;;
11854;SDS011;5987;53.140;8.904;2023-01-09T18:06:04;23.33;;;13.97;;
11854;SDS011;5987;53.140;8.904;2023-01-09T18:09:11;19.67;;;12.90;;
11854;SDS011;5987;53.140;8.904;2023-01-09T18:12:18;21.90;;;12.40;;
11854;SDS011;5987;53.140;8.904;2023-01-09T18:15:28;20.33;;;12.97;;
11854;SDS011;5987;53.140;8.904;2023-01-09T18:18:32;22.17;;;12.30;;
11854;SDS011;5987;53.140;8.904;2023-01-09T18:21:38;19.10;;;11.20;;
11854;SDS011;5987;53.140;8.904;2023-01-09T18:24:42;17.43;;;10.50;;
11854;SDS011;5987;53.140;8.904;2023-01-09T18:27:46;21.10;;;11.87;;
11854;SDS011;5987;53.140;8.904;2023-01-09T18:30:50;20.93;;;13.23;;
11854;SDS011;5987;53.140;8.904;2023-01-09T18:33:54;18.37;;;11.77;;
11854;SDS011;5987;53.140;8.904;2023-01-09T18:37:04;20.37;;;12.20;;
11854;SDS011;5987;53.140;8.904;2023-01-09T18:40:09;17.90;;;11.03;;
11854;SDS011;5987;53.140;8.904;2023-01-09T18:43:14;22.60;;;11.90;;
11854;SDS011;5987;53.140;8.904;2023-01-09T18:46:21;21.50;;;13.13;;
11854;SDS011;5987;53.140;8.904;2023-01-09T18:49:25;21.53;;;11.97;;
11854;SDS011;5987;53.140;8.904;2023-01-09T18:52:32;20.77;;;12.33;;
11854;SDS011;5987;53.140;8.904;2023-01-09T18:55:35;20.47;;;12.00;;
11854;SDS011;5987;53.140;8.904;2023-01-09T18:58:40;19.67;;;12.77;;
11854;SDS011;5987;53.140;8.904;2023-01-09T19:01:44;23.23;;;12.17;;
11854;SDS011;5987;53.140;8.904;2023-01-09T19:04:49;21.73;;;13.20;;
11854;SDS011;5987;53.140;8.904;2023-01-09T19:07:55;20.33;;;13.50;;
11854;SDS011;5987;53.140;8.904;2023-01-09T19:10:59;23.53;;;13.80;;
11854;SDS011;5987;53.140;8.904;2023-01-09T19:14:04;22.63;;;13.37;;
11854;SDS011;5987;53.140;8.904;2023-01-09T19:17:08;22.17;;;12.77;;
11854;SDS011;5987;53.140;8.904;2023-01-09T19:20:12;20.53;;;11.37;;
11854;SDS011;5987;53.140;8.904;2023-01-09T19:23:18;17.53;;;11.70;;
11854;SDS011;5987;53.140;8.904;2023-01-09T19:26:25;20.30;;;12.83;;